M/T Pazar — TCMC — position and weather

sailwx.info

Track history (hours):
 
Tides and Currents Weather Stations Pressure Air Temp Water Temp Dewpoint Dewpoint Depression Visibility Wind Speed Wind Dir Waves Ship Positions

M/T Pazar

Last reported at 2017-Nov-16 20:30 UTC. Time now 2017-Nov-20 12:08 UTC.
Position N 36°00' W 005°14'.

Length 85 m; draft 4.4 m.

Type: Tanker. MMSI: 271000251.

Date/timePositionNaut miles runAvg speedWind from/ knotsBaromVisibWave heightAir tempDewpointWater temp
2017-Nov-16 20:30N 36°00' W 005°14'612.2
2017-Nov-16 20:00N 35°59' W 005°21'612.3
2017-Nov-16 19:30N 35°57' W 005°28'  
2017-Nov-11 07:53N 38°31' W 008°51'0 0.2
2017-Nov-11 07:31N 38°31' W 008°52'3 6.2
2017-Nov-11 07:00N 38°30' W 008°55'611.1
2017-Nov-11 06:30N 38°25' W 008°59'5 9.6
2017-Nov-11 06:01N 38°20' W 008°59'510.2
2017-Nov-11 05:30N 38°15' W 008°60'1 1.1
2017-Nov-11 05:00N 38°15' W 008°59'5 9.9
2017-Nov-11 04:30N 38°20' W 008°59'5 9.6
2017-Nov-11 04:01N 38°15' W 008°58'5 9.6
2017-Nov-11 03:31N 38°10' W 008°59'5 9.6
2017-Nov-11 03:01N 38°15' W 008°58'5 9.8
2017-Nov-11 02:31N 38°20' W 008°58'5 9.7
2017-Nov-11 02:00N 38°15' W 008°59'1 2.1
2017-Nov-11 01:31N 38°14' W 008°59'510.3
2017-Nov-11 01:00N 38°19' W 008°59'2 4.7
2017-Nov-11 00:30N 38°17' W 008°59'5 9.9
2017-Nov-11 00:01N 38°12' W 008°59'1 2.0
2017-Nov-10 23:30N 38°11' W 008°58'510.4
2017-Nov-10 23:00N 38°17' W 008°58'4 8.7
2017-Nov-10 22:30N 38°21' W 008°60'510.0
2017-Nov-10 22:01N 38°16' W 009°02'5 9.8
2017-Nov-10 21:30N 38°11' W 009°03'4 8.6
2017-Nov-10 21:01N 38°07' W 009°06'5 9.5
2017-Nov-10 20:31N 38°03' W 009°08'5 9.2
2017-Nov-10 20:00N 37°58' W 009°09'4 9.0
2017-Nov-10 19:30N 37°54' W 009°12'5 9.0
2017-Nov-10 19:00N 37°51' W 009°15'5 9.1
2017-Nov-10 18:30N 37°46' W 009°17'5 9.5
2017-Nov-10 18:00N 37°42' W 009°19'  
Track history (hours):
 
Tides and Currents Weather Stations Pressure Air Temp Water Temp Dewpoint Dewpoint Depression Visibility Wind Speed Wind Dir Waves Ship Positions

M/T Pazar

Last reported at 2017-Nov-16 20:30 UTC. Time now 2017-Nov-20 12:08 UTC.
Position N 36°00' W 005°14'.

Length 85 m; draft 4.4 m.

Type: Tanker. MMSI: 271000251.

Date/timePositionNaut miles runAvg speedWind from/ knotsBaromVisibWave heightAir tempDewpointWater temp
2017-Nov-16 20:30N 36°00' W 005°14'612.2
2017-Nov-16 20:00N 35°59' W 005°21'612.3
2017-Nov-16 19:30N 35°57' W 005°28'  
2017-Nov-11 07:53N 38°31' W 008°51'0 0.2
2017-Nov-11 07:31N 38°31' W 008°52'3 6.2
2017-Nov-11 07:00N 38°30' W 008°55'611.1
2017-Nov-11 06:30N 38°25' W 008°59'5 9.6
2017-Nov-11 06:01N 38°20' W 008°59'510.2
2017-Nov-11 05:30N 38°15' W 008°60'1 1.1
2017-Nov-11 05:00N 38°15' W 008°59'5 9.9
2017-Nov-11 04:30N 38°20' W 008°59'5 9.6
2017-Nov-11 04:01N 38°15' W 008°58'5 9.6
2017-Nov-11 03:31N 38°10' W 008°59'5 9.6
2017-Nov-11 03:01N 38°15' W 008°58'5 9.8
2017-Nov-11 02:31N 38°20' W 008°58'5 9.7
2017-Nov-11 02:00N 38°15' W 008°59'1 2.1
2017-Nov-11 01:31N 38°14' W 008°59'510.3
2017-Nov-11 01:00N 38°19' W 008°59'2 4.7
2017-Nov-11 00:30N 38°17' W 008°59'5 9.9
2017-Nov-11 00:01N 38°12' W 008°59'1 2.0
2017-Nov-10 23:30N 38°11' W 008°58'510.4
2017-Nov-10 23:00N 38°17' W 008°58'4 8.7
2017-Nov-10 22:30N 38°21' W 008°60'510.0
2017-Nov-10 22:01N 38°16' W 009°02'5 9.8
2017-Nov-10 21:30N 38°11' W 009°03'4 8.6
2017-Nov-10 21:01N 38°07' W 009°06'5 9.5
2017-Nov-10 20:31N 38°03' W 009°08'5 9.2
2017-Nov-10 20:00N 37°58' W 009°09'4 9.0
2017-Nov-10 19:30N 37°54' W 009°12'5 9.0
2017-Nov-10 19:00N 37°51' W 009°15'5 9.1
2017-Nov-10 18:30N 37°46' W 009°17'5 9.5
2017-Nov-10 18:00N 37°42' W 009°19'  

Dump ship's entire track history